This is the latest recevied weather packets stored in our database for station/object WA7CUG. If no packets are shown the sender has not sent any weather packets the latest 1 day(s).
| Time | Temp. | Humidity | Pressure | Rain* | Wind** | Luminosity | Snow |
|---|---|---|---|---|---|---|---|
| 1836274778 | 20° C | 50% | 1011.7 hPa | 0 mm | 0 m/s | 0 W/m² | - |
| 1836274477 | 18.89° C | 53% | 1011.5 hPa | 0 mm | 0.89 m/s, 209° | 0 W/m² | - |
| 1836274330 | 20° C | 51% | 1011.8 hPa | 0 mm | 0 m/s | 0 W/m² | - |
| 1836274175 | 20° C | 58% | 1011.5 hPa | 0 mm | 0 m/s | 0 W/m² | - |
| 1836273875 | 20° C | 52% | 1011.1 hPa | 0 mm | 0.45 m/s, 179° | 0 W/m² | - |
| 1778053395 | 15° C | 67% | 1011.1 hPa | 0 mm | 0 m/s | 0 W/m² | - |
| 1778053092 | 15.56° C | 61% | 1010.8 hPa | 0 mm | 0 m/s | 0 W/m² | - |
| 1778052790 | 15° C | 64% | 1010.9 hPa | 0 mm | 0.89 m/s, 164° | 0 W/m² | - |
| 1778052487 | 15.56° C | 62% | 1010.8 hPa | 0 mm | 0.89 m/s, 142° | 0 W/m² | - |
| 1778052184 | 16.11° C | 61% | 1010.9 hPa | 0 mm | 0.45 m/s, 137° | 0 W/m² | - |
| 1778051882 | 16.67° C | 60% | 1010.9 hPa | 0 mm | 0 m/s | 0 W/m² | - |
| 1778051580 | 16.11° C | 62% | 1010.9 hPa | 0 mm | 0.45 m/s, 190° | 0 W/m² | - |
| 1778051276 | 15° C | 66% | 1010.9 hPa | 0 mm | 0.45 m/s, 190° | 0 W/m² | - |
| 1778050974 | 16.11° C | 62% | 1010.8 hPa | 0 mm | 0 m/s | 0 W/m² | - |
| 1778050671 | 15.56° C | 62% | 1010.9 hPa | 0 mm | 0 m/s | 0 W/m² | - |
| 1778050368 | 16.11° C | 61% | 1010.9 hPa | 0 mm | 0 m/s | 0 W/m² | - |
| 1778050064 | 16.67° C | 61% | 1010.8 hPa | 0 mm | 0 m/s | 0 W/m² | - |
| 1778049760 | 16.67° C | 58% | 1010.8 hPa | 0 mm | 0 m/s | 0 W/m² | - |
| 1778049458 | 16.67° C | 60% | 1010.8 hPa | 0 mm | 0 m/s | 0 W/m² | - |
| 1778049155 | 15° C | 63% | 1010.9 hPa | 0 mm | 0 m/s | 0 W/m² | - |
| 1778048854 | 16.11° C | 65% | 1010.8 hPa | 0 mm | 0.89 m/s, 213° | 0 W/m² | - |
| 1778048550 | 17.22° C | 58% | 1010.8 hPa | 0 mm | 0 m/s | 0 W/m² | - |
| 1778048246 | 16.11° C | 68% | 1010.7 hPa | 0 mm | 0.45 m/s, 185° | 0 W/m² | - |
| 1778047944 | 16.67° C | 62% | 1010.6 hPa | 0 mm | 0 m/s | 0 W/m² | - |
| 1778047643 | 15.56° C | 63% | 1010.6 hPa | 0 mm | 0 m/s | 0 W/m² | - |
* Rain latest hour (hover to see other rain measurements)
** Current wind speed in m/s (hover to see current wind gust speed)